createdAt,value
2023-02-16T00:00:39.307Z,19.15
2023-02-16T00:03:14.811Z,25.98
2023-02-16T00:05:48.265Z,21.08
2023-02-16T00:08:21.328Z,31.80
2023-02-16T00:11:11.594Z,25.48
2023-02-16T00:13:43.993Z,30.02
2023-02-16T00:16:18.794Z,21.75
2023-02-16T00:18:52.053Z,23.98
2023-02-16T00:21:24.442Z,22.25
2023-02-16T00:23:57.547Z,17.55
2023-02-16T00:26:33.868Z,18.17
2023-02-16T00:29:06.774Z,18.25
2023-02-16T00:31:39.405Z,17.10
2023-02-16T00:34:36.388Z,10.40
2023-02-16T00:37:10.604Z,12.10
2023-02-16T00:39:44.558Z,14.68
2023-02-16T00:42:20.565Z,9.98
2023-02-16T00:44:55.429Z,13.13
2023-02-16T00:47:32.331Z,14.77
2023-02-16T00:50:13.934Z,12.35
2023-02-16T00:52:47.748Z,14.85
2023-02-16T00:55:23.053Z,18.80
2023-02-16T00:58:01.397Z,14.55
2023-02-16T01:00:36.334Z,20.25
2023-02-16T01:03:14.188Z,19.30
2023-02-16T01:05:46.982Z,20.95
2023-02-16T01:08:38.212Z,10.32
2023-02-16T01:11:12.007Z,9.30
2023-02-16T01:13:48.634Z,15.30
2023-02-16T01:16:23.355Z,12.85
2023-02-16T01:18:55.756Z,14.57
2023-02-16T01:21:28.259Z,9.90
2023-02-16T01:24:00.957Z,17.27
2023-02-16T01:26:38.832Z,13.90
2023-02-16T01:31:47.788Z,8.50
2023-02-16T01:34:20.265Z,15.65
2023-02-16T01:36:52.669Z,22.95
2023-02-16T01:39:25.019Z,14.90
2023-02-16T01:42:11.207Z,19.40
2023-02-16T01:44:48.627Z,13.20
2023-02-16T01:47:36.125Z,14.43
2023-02-16T01:50:16.637Z,7.53
2023-02-16T01:52:55.396Z,13.18
2023-02-16T01:55:32.333Z,11.60
2023-02-16T01:58:11.465Z,10.45
2023-02-16T02:01:23.443Z,13.98
2023-02-16T02:04:14.162Z,15.43
2023-02-16T02:06:47.146Z,10.35
2023-02-16T02:09:25.874Z,23.88
2023-02-16T02:12:06.052Z,13.13
2023-02-16T02:14:40.399Z,9.65
2023-02-16T02:17:17.393Z,16.15
2023-02-16T02:19:56.824Z,18.25
2023-02-16T02:23:24.947Z,16.80
2023-02-16T02:26:43.451Z,12.80
2023-02-16T02:29:29.190Z,17.50
2023-02-16T02:32:10.886Z,13.93
2023-02-16T02:35:00.131Z,14.38
2023-02-16T02:37:44.117Z,21.25
2023-02-16T02:40:29.873Z,28.25
2023-02-16T02:43:11.141Z,18.30
2023-02-16T02:45:49.443Z,11.98
2023-02-16T02:48:22.226Z,20.83
2023-02-16T02:51:16.104Z,20.80
2023-02-16T02:54:14.365Z,15.85
2023-02-16T03:00:12.963Z,14.90
2023-02-16T03:02:49.346Z,12.30
2023-02-16T03:05:25.755Z,14.60
2023-02-16T03:08:13.379Z,13.82
2023-02-16T03:11:07.333Z,14.35
2023-02-16T03:13:44.207Z,10.75
2023-02-16T03:16:21.393Z,12.77
2023-02-16T03:19:14.359Z,10.40
2023-02-16T03:22:04.792Z,15.77
2023-02-16T03:24:55.436Z,20.08
2023-02-16T03:27:51.642Z,13.23
2023-02-16T03:30:25.708Z,11.52
2023-02-16T03:32:58.180Z,13.40
2023-02-16T03:35:31.730Z,10.80
2023-02-16T03:38:04.763Z,11.73
2023-02-16T03:40:40.334Z,10.35
2023-02-16T03:43:12.695Z,10.75
2023-02-16T03:45:45.696Z,16.27
2023-02-16T03:48:18.253Z,9.68
2023-02-16T03:50:51.291Z,8.38
2023-02-16T03:53:23.701Z,13.00
2023-02-16T03:55:56.305Z,15.43
2023-02-16T03:58:28.766Z,18.30
2023-02-16T04:01:01.387Z,11.88
2023-02-16T04:03:33.789Z,13.43
2023-02-16T04:06:07.736Z,11.18
2023-02-16T04:08:40.063Z,10.90
2023-02-16T04:11:30.561Z,17.48
2023-02-16T04:14:02.887Z,9.70
2023-02-16T04:16:35.390Z,14.57
2023-02-16T04:19:07.832Z,10.38
2023-02-16T04:21:42.305Z,18.70
2023-02-16T04:24:14.677Z,9.32
2023-02-16T04:26:48.787Z,11.90
2023-02-16T04:29:21.136Z,8.30
2023-02-16T04:31:53.754Z,17.30
2023-02-16T04:34:26.160Z,11.50
2023-02-16T04:36:59.288Z,12.45
2023-02-16T04:39:31.911Z,14.73
2023-02-16T04:42:04.711Z,19.00
2023-02-16T04:44:37.032Z,9.52
2023-02-16T04:47:09.458Z,14.18
2023-02-16T04:49:41.840Z,16.27
2023-02-16T04:52:14.917Z,15.75
2023-02-16T04:54:47.381Z,15.85
2023-02-16T04:57:21.870Z,10.13
2023-02-16T04:59:54.609Z,18.20
2023-02-16T05:02:27.334Z,13.13
2023-02-16T05:04:59.692Z,7.50
2023-02-16T05:07:32.817Z,11.18
2023-02-16T05:10:06.502Z,18.63
2023-02-16T05:12:56.900Z,11.45
2023-02-16T05:15:29.265Z,11.93
2023-02-16T05:18:02.791Z,13.20
2023-02-16T05:21:05.091Z,14.02
2023-02-16T05:23:38.725Z,16.50
2023-02-16T05:26:11.069Z,21.05
2023-02-16T05:28:43.525Z,20.15
2023-02-16T05:31:15.970Z,22.92
2023-02-16T05:33:48.702Z,14.20
2023-02-16T05:36:21.329Z,11.80
2023-02-16T05:38:54.479Z,19.70
2023-02-16T05:41:26.981Z,15.15
2023-02-16T05:44:02.387Z,11.05
2023-02-16T05:46:36.570Z,12.90
2023-02-16T05:49:09.558Z,22.45
2023-02-16T05:51:42.032Z,19.63
2023-02-16T05:54:16.874Z,22.73
2023-02-16T05:56:51.377Z,19.25
2023-02-16T05:59:24.005Z,19.33
2023-02-16T06:01:56.406Z,21.77
2023-02-16T06:04:29.066Z,30.98
2023-02-16T06:07:02.104Z,33.22
2023-02-16T06:09:35.134Z,44.63
2023-02-16T06:12:07.634Z,31.33
2023-02-16T06:14:40.592Z,26.15
2023-02-16T06:17:12.973Z,24.95
2023-02-16T06:19:45.441Z,26.60
2023-02-16T06:22:17.784Z,28.83
2023-02-16T06:24:50.934Z,33.78
2023-02-16T06:27:23.636Z,44.50
2023-02-16T06:29:56.072Z,26.55
2023-02-16T06:32:28.638Z,37.75
2023-02-16T06:35:01.506Z,42.45
2023-02-16T06:37:33.861Z,27.42
2023-02-16T06:40:09.378Z,37.28
2023-02-16T06:42:41.869Z,30.83
2023-02-16T06:45:14.431Z,32.95
2023-02-16T06:47:46.801Z,26.48
2023-02-16T06:50:19.312Z,36.08
2023-02-16T06:52:51.714Z,37.55
2023-02-16T06:55:24.850Z,35.80
2023-02-16T06:57:57.203Z,37.05
2023-02-16T07:00:30.377Z,33.05
2023-02-16T07:03:02.981Z,27.75
2023-02-16T07:05:35.401Z,43.47
2023-02-16T07:08:07.959Z,31.17
2023-02-16T07:10:49.739Z,25.52
2023-02-16T07:13:22.887Z,22.75
2023-02-16T07:15:55.357Z,21.13
2023-02-16T07:18:27.838Z,28.38
2023-02-16T07:21:00.265Z,27.63
2023-02-16T07:23:32.837Z,35.45
2023-02-16T07:26:05.966Z,27.55
2023-02-16T07:28:38.535Z,35.28
2023-02-16T07:31:12.642Z,25.17
2023-02-16T07:33:45.512Z,25.20
2023-02-16T07:36:17.942Z,30.17
2023-02-16T07:38:51.026Z,27.15
2023-02-16T07:41:24.554Z,26.65
2023-02-16T07:43:57.078Z,26.02
2023-02-16T07:46:31.036Z,26.38
2023-02-16T07:49:05.200Z,22.00
2023-02-16T07:51:37.553Z,29.50
2023-02-16T07:54:10.235Z,35.42
2023-02-16T07:56:43.482Z,20.77
2023-02-16T07:59:16.139Z,30.70
2023-02-16T08:01:48.679Z,28.75
2023-02-16T08:04:21.138Z,22.50
2023-02-16T08:06:53.520Z,26.25
2023-02-16T08:09:26.446Z,23.48
2023-02-16T08:11:59.502Z,18.35
2023-02-16T08:14:31.874Z,20.13
2023-02-16T08:17:05.788Z,9.98
2023-02-16T08:19:38.765Z,12.82
2023-02-16T08:22:11.788Z,13.10
2023-02-16T08:24:44.291Z,16.02
2023-02-16T08:27:17.349Z,19.33
2023-02-16T08:29:49.918Z,16.48
2023-02-16T08:32:22.323Z,14.82
2023-02-16T08:34:55.770Z,14.75
2023-02-16T08:37:28.343Z,20.30
2023-02-16T08:40:02.014Z,18.02
2023-02-16T08:42:36.000Z,16.13
2023-02-16T08:45:09.371Z,19.38
2023-02-16T08:47:41.943Z,20.35
2023-02-16T08:50:16.449Z,20.48
2023-02-16T08:52:48.773Z,15.98
2023-02-16T08:55:22.557Z,24.25
2023-02-16T08:57:55.567Z,16.38
2023-02-16T09:00:33.594Z,20.05
2023-02-16T09:03:06.525Z,21.30
2023-02-16T09:05:39.446Z,15.65
2023-02-16T09:08:11.993Z,17.23
2023-02-16T09:10:45.334Z,17.88
2023-02-16T09:13:18.375Z,19.85
2023-02-16T09:15:51.016Z,20.38
2023-02-16T09:18:23.515Z,33.97
2023-02-16T09:20:56.786Z,20.63
2023-02-16T09:23:30.095Z,21.48
2023-02-16T09:26:06.514Z,15.80
2023-02-16T09:28:40.995Z,14.65
2023-02-16T09:31:16.159Z,18.83
2023-02-16T09:33:48.898Z,14.73
2023-02-16T09:36:21.888Z,12.63
2023-02-16T09:38:55.522Z,19.35
2023-02-16T09:41:36.819Z,27.65
2023-02-16T09:44:37.679Z,24.08
2023-02-16T09:47:19.612Z,18.63
2023-02-16T09:49:56.193Z,19.35
2023-02-16T09:52:35.952Z,13.20
2023-02-16T09:57:59.014Z,6.20
2023-02-16T10:00:44.025Z,11.70
2023-02-16T10:03:36.530Z,13.90
2023-02-16T10:06:27.454Z,16.00
2023-02-16T10:09:05.811Z,19.15
2023-02-16T10:11:45.948Z,37.80
2023-02-16T10:14:25.256Z,16.83
2023-02-16T10:17:07.528Z,29.00
2023-02-16T10:19:46.938Z,31.25
2023-02-16T10:22:30.382Z,26.95
2023-02-16T10:25:09.799Z,7.97
2023-02-16T10:27:44.928Z,5.43
2023-02-16T10:30:19.185Z,4.70
2023-02-16T10:32:56.758Z,2.85
2023-02-16T10:35:37.785Z,3.88
2023-02-16T10:38:17.637Z,4.97
2023-02-16T10:40:59.020Z,3.53
2023-02-16T10:43:41.792Z,3.70
2023-02-16T10:46:21.770Z,4.07
2023-02-16T10:48:55.913Z,3.17
2023-02-16T10:51:32.557Z,3.78
2023-02-16T10:54:10.442Z,3.45
2023-02-16T10:56:50.041Z,4.88
2023-02-16T10:59:24.203Z,3.78
2023-02-16T11:01:58.412Z,2.88
2023-02-16T11:04:36.057Z,1.75
2023-02-16T11:07:10.368Z,2.42
2023-02-16T11:09:44.500Z,3.90
2023-02-16T11:12:26.891Z,2.47
2023-02-16T11:15:02.898Z,4.97
2023-02-16T11:17:49.510Z,3.95
2023-02-16T11:20:28.487Z,2.72
2023-02-16T11:23:14.417Z,3.05
2023-02-16T11:25:55.464Z,9.32
2023-02-16T11:28:32.554Z,4.78
2023-02-16T11:31:13.723Z,7.25
2023-02-16T11:33:57.386Z,2.90
2023-02-16T11:36:34.818Z,6.90
2023-02-16T11:39:16.955Z,2.55
2023-02-16T11:41:51.500Z,3.97
2023-02-16T11:44:28.798Z,3.50
2023-02-16T11:47:04.107Z,4.53
2023-02-16T11:49:39.336Z,2.40
2023-02-16T11:52:26.463Z,3.17
2023-02-16T11:55:01.634Z,4.38
2023-02-16T11:57:36.724Z,4.38
2023-02-16T12:00:16.068Z,3.35
2023-02-16T12:03:18.474Z,9.25
2023-02-16T12:06:06.272Z,4.25
2023-02-16T12:09:01.863Z,2.70
2023-02-16T12:11:44.811Z,3.17
2023-02-16T12:14:28.701Z,5.40
2023-02-16T12:17:18.640Z,6.55
2023-02-16T12:22:37.317Z,4.30
2023-02-16T12:25:23.238Z,3.53
2023-02-16T12:28:05.293Z,3.13
2023-02-16T12:30:52.375Z,4.47
2023-02-16T12:33:38.363Z,7.13
2023-02-16T12:36:52.639Z,5.45
2023-02-16T12:39:31.476Z,6.20
2023-02-16T12:42:23.488Z,4.53
2023-02-16T12:44:59.320Z,8.35
2023-02-16T12:47:37.234Z,3.17
2023-02-16T12:50:18.268Z,3.33
2023-02-16T12:52:55.138Z,3.60
2023-02-16T12:55:32.511Z,2.17
2023-02-16T12:58:17.138Z,4.00
2023-02-16T13:00:52.837Z,11.20
2023-02-16T13:03:33.323Z,6.00
2023-02-16T13:06:14.432Z,3.58
2023-02-16T13:08:52.704Z,7.28
2023-02-16T13:11:30.198Z,7.50
2023-02-16T13:14:06.518Z,11.48
2023-02-16T13:16:44.827Z,7.22
2023-02-16T13:19:17.820Z,14.05
2023-02-16T13:22:13.641Z,18.70
2023-02-16T13:24:58.965Z,10.23
2023-02-16T13:27:42.217Z,8.63
2023-02-16T13:30:54.230Z,6.05
2023-02-16T13:33:49.313Z,5.13
2023-02-16T13:36:41.861Z,4.80
2023-02-16T13:39:30.086Z,13.65
2023-02-16T13:42:37.799Z,9.18
2023-02-16T13:45:17.743Z,6.38
2023-02-16T13:47:52.893Z,6.78
2023-02-16T13:50:30.314Z,5.55
2023-02-16T13:53:17.181Z,8.65
2023-02-16T13:56:10.881Z,8.23
2023-02-16T13:58:43.945Z,6.85
2023-02-16T14:01:39.700Z,6.82
2023-02-16T14:04:40.678Z,6.25
2023-02-16T14:07:32.561Z,6.07
2023-02-16T14:10:12.366Z,5.10
2023-02-16T14:12:44.760Z,12.73
2023-02-16T14:15:20.254Z,6.53
2023-02-16T14:17:52.719Z,6.22
2023-02-16T14:20:29.128Z,12.23
2023-02-16T14:23:01.784Z,18.17
2023-02-16T14:25:39.309Z,9.20
2023-02-16T14:28:45.047Z,7.25
2023-02-16T14:31:22.141Z,9.88
2023-02-16T14:34:03.471Z,7.03
2023-02-16T14:37:26.995Z,9.15
2023-02-16T14:40:21.577Z,8.95
2023-02-16T14:42:57.908Z,14.77
2023-02-16T14:45:55.396Z,15.68
2023-02-16T14:48:47.726Z,13.82
2023-02-16T14:51:50.266Z,11.32
2023-02-16T14:54:47.082Z,27.52
2023-02-16T14:57:23.654Z,16.92
2023-02-16T15:00:00.209Z,13.25
2023-02-16T15:02:35.403Z,12.27
2023-02-16T15:05:17.067Z,24.40
2023-02-16T15:07:52.019Z,25.15
2023-02-16T15:10:27.822Z,33.03
2023-02-16T15:13:00.427Z,16.30
2023-02-16T15:15:43.399Z,51.05
2023-02-16T15:18:19.370Z,32.83
2023-02-16T15:20:56.653Z,23.45
2023-02-16T15:23:31.612Z,41.78
2023-02-16T15:26:07.629Z,35.78
2023-02-16T15:28:41.433Z,34.92
2023-02-16T15:31:17.329Z,19.83
2023-02-16T15:33:56.300Z,27.23
2023-02-16T15:36:34.644Z,22.27
2023-02-16T15:39:09.046Z,24.88
2023-02-16T15:41:45.200Z,41.65
2023-02-16T15:44:29.124Z,35.75
2023-02-16T15:47:08.499Z,23.23
2023-02-16T15:49:41.328Z,27.00
2023-02-16T15:52:17.718Z,14.90
2023-02-16T15:54:50.491Z,16.92
2023-02-16T15:57:30.047Z,10.98
2023-02-16T16:00:08.354Z,25.15
2023-02-16T16:02:49.093Z,25.08
2023-02-16T16:05:24.452Z,21.48
2023-02-16T16:08:00.056Z,36.30
2023-02-16T16:10:35.746Z,27.02
2023-02-16T16:13:17.466Z,51.17
2023-02-16T16:15:50.953Z,51.75
2023-02-16T16:18:42.571Z,38.10
2023-02-16T16:21:22.233Z,29.63
2023-02-16T16:24:04.411Z,56.15
2023-02-16T16:26:52.409Z,44.33
2023-02-16T16:29:34.342Z,33.20
2023-02-16T16:32:18.020Z,29.70
2023-02-16T16:34:51.041Z,33.60
2023-02-16T16:37:28.846Z,25.48
2023-02-16T16:40:05.857Z,24.35
2023-02-16T16:42:38.737Z,25.90
2023-02-16T16:45:36.749Z,20.27
2023-02-16T16:48:14.465Z,16.50
2023-02-16T16:50:48.306Z,11.75
2023-02-16T16:53:45.064Z,15.60
2023-02-16T16:56:18.401Z,8.65
2023-02-16T16:58:51.835Z,14.55
2023-02-16T17:01:26.347Z,13.90
2023-02-16T17:03:59.264Z,15.88
2023-02-16T17:06:31.742Z,16.15
2023-02-16T17:09:05.016Z,16.67
2023-02-16T17:11:38.413Z,22.40
2023-02-16T17:14:16.023Z,18.35
2023-02-16T17:16:50.540Z,20.50
2023-02-16T17:19:23.559Z,16.00
2023-02-16T17:21:56.339Z,24.85
2023-02-16T17:24:28.649Z,35.92
2023-02-16T17:27:01.873Z,62.88
2023-02-16T17:29:34.245Z,47.38
2023-02-16T17:32:06.771Z,43.58
2023-02-16T17:34:39.149Z,58.50
2023-02-16T17:37:11.866Z,48.58
2023-02-16T17:39:44.141Z,31.98
2023-02-16T17:42:17.205Z,24.13
2023-02-16T17:44:49.540Z,17.25
2023-02-16T17:47:22.293Z,19.88
2023-02-16T17:49:54.622Z,17.23
2023-02-16T17:52:27.098Z,31.15
2023-02-16T17:54:59.465Z,17.70
2023-02-16T17:57:32.498Z,27.50
2023-02-16T18:00:07.558Z,24.30
2023-02-16T18:02:39.926Z,24.60
2023-02-16T18:05:12.381Z,22.42
2023-02-16T18:07:44.771Z,23.63
2023-02-16T18:10:31.345Z,26.08
2023-02-16T18:13:04.884Z,22.48
2023-02-16T18:15:38.161Z,23.52
2023-02-16T18:18:12.239Z,21.38
2023-02-16T18:20:44.874Z,18.88
2023-02-16T18:23:17.695Z,21.25
2023-02-16T18:25:50.138Z,26.50
2023-02-16T18:28:27.952Z,24.80
2023-02-16T18:31:01.026Z,26.92
2023-02-16T18:33:33.969Z,74.70
2023-02-16T18:36:07.499Z,65.07
2023-02-16T18:38:39.976Z,73.25
2023-02-16T18:41:13.185Z,166.95
2023-02-16T18:43:46.211Z,229.85
2023-02-16T18:46:18.693Z,241.88
2023-02-16T18:48:51.134Z,243.18
2023-02-16T18:51:25.326Z,319.02
2023-02-16T18:53:57.916Z,573.88
2023-02-16T18:56:30.370Z,719.33
2023-02-16T18:59:03.882Z,666.53
2023-02-16T19:01:36.352Z,586.85
2023-02-16T19:04:09.103Z,235.35
2023-02-16T19:06:41.759Z,146.20
2023-02-16T19:09:14.167Z,174.75
2023-02-16T19:11:46.934Z,352.63
2023-02-16T19:14:20.410Z,429.08
2023-02-16T19:16:52.789Z,314.17
2023-02-16T19:19:25.210Z,290.77
2023-02-16T19:21:57.591Z,208.75
2023-02-16T19:24:30.688Z,136.63
2023-02-16T19:27:03.344Z,131.45
2023-02-16T19:29:36.558Z,161.52
2023-02-16T19:32:08.970Z,103.47
2023-02-16T19:34:41.365Z,103.22
2023-02-16T19:37:14.216Z,136.20
2023-02-16T19:39:46.680Z,145.52
2023-02-16T19:42:20.329Z,116.75
2023-02-16T19:44:53.744Z,107.28
2023-02-16T19:47:26.150Z,82.25
2023-02-16T19:49:58.670Z,93.32
2023-02-16T19:52:31.079Z,80.57
2023-02-16T19:55:03.730Z,90.05
2023-02-16T19:57:36.093Z,124.75
2023-02-16T20:00:12.747Z,103.25
2023-02-16T20:02:45.107Z,111.18
2023-02-16T20:05:17.753Z,84.22
2023-02-16T20:07:50.090Z,79.53
2023-02-16T20:10:22.524Z,79.63
2023-02-16T20:12:54.896Z,81.95
2023-02-16T20:15:28.179Z,99.05
2023-02-16T20:18:00.960Z,67.00
2023-02-16T20:20:33.505Z,63.00
2023-02-16T20:23:06.598Z,68.63
2023-02-16T20:25:39.786Z,80.07
2023-02-16T20:28:12.159Z,73.90
2023-02-16T20:30:45.473Z,83.72
2023-02-16T20:33:18.948Z,79.70
2023-02-16T20:35:51.951Z,60.70
2023-02-16T20:38:24.321Z,57.33
2023-02-16T20:40:56.787Z,44.28
2023-02-16T20:43:29.749Z,48.42
2023-02-16T20:46:03.671Z,60.17
2023-02-16T20:48:36.197Z,41.10
2023-02-16T20:51:08.920Z,49.05
2023-02-16T20:53:41.394Z,35.80
2023-02-16T20:56:16.726Z,50.58
2023-02-16T20:58:50.661Z,44.70
2023-02-16T21:01:26.318Z,44.25
2023-02-16T21:03:59.941Z,33.35
2023-02-16T21:06:33.361Z,28.33
2023-02-16T21:09:07.796Z,37.33
2023-02-16T21:11:40.367Z,36.20
2023-02-16T21:14:13.103Z,44.50
2023-02-16T21:16:46.076Z,44.80
2023-02-16T21:19:23.306Z,38.92
2023-02-16T21:21:55.980Z,41.05
2023-02-16T21:24:28.500Z,64.43
2023-02-16T21:27:01.517Z,67.65
2023-02-16T21:29:33.930Z,57.38
2023-02-16T21:32:07.227Z,61.03
2023-02-16T21:34:39.687Z,68.75
2023-02-16T21:37:12.204Z,33.95
2023-02-16T21:40:02.834Z,54.45
2023-02-16T21:42:35.458Z,26.02
2023-02-16T21:45:16.453Z,19.50
2023-02-16T21:48:07.989Z,10.80
2023-02-16T21:50:41.387Z,16.95
2023-02-16T21:53:13.867Z,27.38
2023-02-16T21:56:04.991Z,41.28
2023-02-16T21:58:37.506Z,41.83
2023-02-16T22:01:10.098Z,45.83
2023-02-16T22:03:43.154Z,28.63
2023-02-16T22:06:15.839Z,32.63
2023-02-16T22:08:48.521Z,29.27
2023-02-16T22:11:21.459Z,31.92
2023-02-16T22:13:54.762Z,32.33
2023-02-16T22:16:29.183Z,23.30
2023-02-16T22:19:07.250Z,27.80
2023-02-16T22:21:42.438Z,21.83
2023-02-16T22:24:17.516Z,23.17
2023-02-16T22:26:50.589Z,37.03
2023-02-16T22:29:23.201Z,35.28
2023-02-16T22:31:55.602Z,15.02
2023-02-16T22:34:28.762Z,22.15
2023-02-16T22:37:01.754Z,14.30
2023-02-16T22:39:34.067Z,14.25
2023-02-16T22:42:06.380Z,17.48
2023-02-16T22:44:38.760Z,17.67
2023-02-16T22:47:11.107Z,14.02
2023-02-16T22:49:44.154Z,10.15
2023-02-16T22:52:16.501Z,10.93
2023-02-16T22:54:50.811Z,9.43
2023-02-16T22:57:23.186Z,14.27
2023-02-16T22:59:55.589Z,10.38
2023-02-16T23:02:28.034Z,14.73
2023-02-16T23:05:01.504Z,18.63
2023-02-16T23:07:35.136Z,14.77
2023-02-16T23:10:08.107Z,13.95
2023-02-16T23:12:40.502Z,14.32
2023-02-16T23:15:12.817Z,18.42
2023-02-16T23:17:45.197Z,18.17
2023-02-16T23:20:18.395Z,14.80
2023-02-16T23:22:50.846Z,12.23
2023-02-16T23:25:35.247Z,9.73
2023-02-16T23:28:07.648Z,7.63
2023-02-16T23:30:42.227Z,10.30
2023-02-16T23:33:14.673Z,12.73
2023-02-16T23:35:47.653Z,11.82
2023-02-16T23:38:20.147Z,10.80
2023-02-16T23:40:56.582Z,7.57
2023-02-16T23:43:29.669Z,12.65
2023-02-16T23:46:02.349Z,9.15
2023-02-16T23:48:35.098Z,8.55
2023-02-16T23:51:09.453Z,9.80
2023-02-16T23:53:43.044Z,9.85
2023-02-16T23:56:17.465Z,12.65
2023-02-16T23:58:50.328Z,11.15
